createdAt,value
2019-03-02T00:03:04.163Z,2.9
2019-03-02T00:08:31.690Z,2.9
2019-03-02T00:19:27.766Z,3
2019-03-02T00:24:57.783Z,3.1
2019-03-02T00:30:23.990Z,3.2
2019-03-02T00:35:54.699Z,3.2
2019-03-02T00:41:20.034Z,3.2
2019-03-02T00:46:48.608Z,3.3
2019-03-02T00:52:20.403Z,3.3
2019-03-02T00:57:45.722Z,3.3
2019-03-02T01:03:15.579Z,3.3
2019-03-02T01:08:41.889Z,3.3
2019-03-02T01:14:09.440Z,3.3
2019-03-02T01:19:38.097Z,3.3
2019-03-02T01:25:05.701Z,3.3
2019-03-02T01:30:34.217Z,3.3
2019-03-02T01:36:02.798Z,3.3
2019-03-02T01:41:31.416Z,3.3
2019-03-02T01:46:58.844Z,3.3
2019-03-02T01:52:30.475Z,3.3
2019-03-02T01:57:54.974Z,3.3
2019-03-02T02:03:23.606Z,3.3
2019-03-02T02:08:51.141Z,3.3
2019-03-02T02:14:19.960Z,3.3
2019-03-02T02:19:48.313Z,3.3
2019-03-02T02:25:16.885Z,3.3
2019-03-02T02:30:45.470Z,3.3
2019-03-02T02:36:18.664Z,3.3
2019-03-02T02:41:41.692Z,3.3
2019-03-02T02:47:12.187Z,3.3
2019-03-02T02:52:38.821Z,3.3
2019-03-02T02:58:06.314Z,3.3
2019-03-02T03:03:34.858Z,3.3
2019-03-02T03:09:05.103Z,3.2
2019-03-02T03:14:31.003Z,3.2
2019-03-02T03:19:59.554Z,3.1
2019-03-02T03:25:27.078Z,3.1
2019-03-02T03:30:55.631Z,3
2019-03-02T03:36:23.192Z,3.1
2019-03-02T03:41:51.731Z,3.1
2019-03-02T03:47:19.273Z,3.1
2019-03-02T03:52:48.806Z,3.2
2019-03-02T03:58:14.387Z,3.2
2019-03-02T04:03:42.084Z,3.2
2019-03-02T04:09:10.583Z,3.2
2019-03-02T04:14:38.107Z,3.2
2019-03-02T04:20:07.908Z,3.2
2019-03-02T04:25:34.212Z,3.2
2019-03-02T04:31:04.492Z,3.2
2019-03-02T04:36:30.502Z,3.1
2019-03-02T04:41:57.890Z,3.1
2019-03-02T04:47:27.549Z,3.1
2019-03-02T04:52:54.952Z,3.1
2019-03-02T04:58:22.523Z,3.1
2019-03-02T05:03:53.679Z,3.1
2019-03-02T05:09:19.718Z,3.1
2019-03-02T05:14:48.198Z,3.1
2019-03-02T05:20:16.821Z,3.2
2019-03-02T05:31:13.877Z,3.2
2019-03-02T05:36:40.443Z,3.2
2019-03-02T05:42:10.287Z,3.2
2019-03-02T05:47:36.624Z,3.2
2019-03-02T05:53:05.096Z,3.3
2019-03-02T05:58:33.634Z,3.3
2019-03-02T06:04:02.181Z,3.3
2019-03-02T06:09:29.749Z,3.3
2019-03-02T06:14:57.305Z,3.3
2019-03-02T06:20:25.995Z,3.4
2019-03-02T06:25:55.056Z,3.4
2019-03-02T06:31:22.079Z,3.4
2019-03-02T06:36:50.657Z,3.4
2019-03-02T06:42:18.234Z,3.5
2019-03-02T06:47:45.776Z,3.5
2019-03-02T06:53:13.376Z,3.6
2019-03-02T06:58:40.974Z,3.6
2019-03-02T07:04:11.094Z,3.6
2019-03-02T07:09:36.075Z,3.6
2019-03-02T07:15:04.945Z,3.7
2019-03-02T07:20:32.235Z,3.8
2019-03-02T07:26:00.896Z,3.8
2019-03-02T07:31:29.462Z,3.9
2019-03-02T07:36:58.039Z,3.9
2019-03-02T07:42:29.723Z,4
2019-03-02T07:47:55.910Z,4
2019-03-02T07:53:24.858Z,4.1
2019-03-02T07:58:51.804Z,4.1
2019-03-02T08:04:19.453Z,4.2
2019-03-02T08:09:46.725Z,4.3
2019-03-02T08:15:14.360Z,4.3
2019-03-02T08:20:43.015Z,4.4
2019-03-02T08:37:06.977Z,4.5
2019-03-02T08:42:35.562Z,4.5
2019-03-02T08:48:04.863Z,4.6
2019-03-02T08:53:31.850Z,4.6
2019-03-02T08:59:01.857Z,4.7
2019-03-02T09:04:28.109Z,4.7
2019-03-02T09:09:55.817Z,4.7
2019-03-02T09:15:25.988Z,4.7
2019-03-02T09:20:51.201Z,4.7
2019-03-02T09:26:18.786Z,4.7
2019-03-02T09:31:46.877Z,4.8
2019-03-02T09:37:15.098Z,4.9
2019-03-02T09:42:42.941Z,5
2019-03-02T09:48:10.493Z,5.1
2019-03-02T09:53:39.718Z,5.2
2019-03-02T09:59:07.778Z,5.2
2019-03-02T10:04:39.332Z,5.3
2019-03-02T10:10:04.200Z,5.3
2019-03-02T10:15:31.891Z,5.4
2019-03-02T10:20:59.590Z,5.5
2019-03-02T10:26:27.309Z,5.6
2019-03-02T10:31:56.028Z,5.6
2019-03-02T10:37:23.776Z,5.6
2019-03-02T10:42:51.687Z,5.6
2019-03-02T10:48:20.633Z,5.6
2019-03-02T10:53:49.094Z,5.6
2019-03-02T10:59:17.793Z,5.7
2019-03-02T11:04:46.577Z,5.7
2019-03-02T11:10:16.574Z,5.7
2019-03-02T11:21:10.624Z,5.6
2019-03-02T11:26:39.332Z,5.7
2019-03-02T11:32:07.072Z,5.7
2019-03-02T11:37:34.821Z,5.7
2019-03-02T11:43:04.786Z,5.7
2019-03-02T11:48:30.617Z,5.8
2019-03-02T11:53:58.074Z,5.9
2019-03-02T11:59:26.771Z,6
2019-03-02T12:04:55.575Z,6
2019-03-02T12:10:23.285Z,6
2019-03-02T12:15:52.174Z,6.1
2019-03-02T12:21:21.143Z,6.2
2019-03-02T12:26:48.734Z,6.3
2019-03-02T12:32:16.484Z,6.4
2019-03-02T12:37:44.207Z,6.4
2019-03-02T12:43:12.026Z,6.4
2019-03-02T12:48:39.790Z,6.5
2019-03-02T12:54:07.695Z,6.5
2019-03-02T12:59:39.510Z,6.5
2019-03-02T13:05:04.195Z,6.4
2019-03-02T13:10:32.001Z,6.4
2019-03-02T13:15:59.783Z,6.3
2019-03-02T13:21:27.583Z,6.2
2019-03-02T13:26:55.278Z,6.2
2019-03-02T13:32:24.060Z,6.2
2019-03-02T13:37:52.939Z,6.2
2019-03-02T13:43:24.499Z,6.2
2019-03-02T13:48:50.158Z,6.2
2019-03-02T13:54:16.152Z,6.2
2019-03-02T13:59:43.895Z,6.1
2019-03-02T14:05:13.503Z,6
2019-03-02T14:10:42.009Z,6
2019-03-02T14:16:08.128Z,5.9
2019-03-02T14:21:38.557Z,6
2019-03-02T14:27:05.688Z,6
2019-03-02T14:32:31.511Z,5.9
2019-03-02T14:38:00.151Z,5.8
2019-03-02T14:43:28.212Z,5.8
2019-03-02T14:48:55.613Z,5.7
2019-03-02T14:54:24.390Z,5.7
2019-03-02T14:59:52.071Z,5.7
2019-03-02T15:05:21.739Z,5.7
2019-03-02T15:10:48.577Z,5.7
2019-03-02T15:16:16.456Z,5.7
2019-03-02T15:21:44.269Z,5.7
2019-03-02T15:27:12.796Z,5.6
2019-03-02T15:32:39.600Z,5.6
2019-03-02T15:38:07.281Z,5.6
2019-03-02T15:43:35.849Z,5.5
2019-03-02T15:49:04.925Z,5.5
2019-03-02T15:54:33.138Z,5.5
2019-03-02T16:00:05.526Z,5.5
2019-03-02T16:05:28.908Z,5.6
2019-03-02T16:10:57.695Z,5.6
2019-03-02T16:16:28.660Z,5.5
2019-03-02T16:27:21.884Z,5.5
2019-03-02T16:32:51.811Z,5.5
2019-03-02T16:38:18.276Z,5.5
2019-03-02T16:43:46.009Z,5.5
2019-03-02T16:49:18.792Z,5.5
2019-03-02T16:54:41.432Z,5.4
2019-03-02T17:00:10.358Z,5.4
2019-03-02T17:05:37.010Z,5.3
2019-03-02T17:11:05.569Z,5.3
2019-03-02T17:16:35.615Z,5.3
2019-03-02T17:22:01.180Z,5.3
2019-03-02T17:27:29.692Z,5.3
2019-03-02T17:32:57.372Z,5.3
2019-03-02T17:38:25.139Z,5.3
2019-03-02T17:43:52.858Z,5.3
2019-03-02T17:49:28.363Z,5.3
2019-03-02T17:54:50.650Z,5.4
2019-03-02T18:00:19.668Z,5.4
2019-03-02T18:05:47.409Z,5.4
2019-03-02T18:11:14.626Z,5.4
2019-03-02T18:16:42.477Z,5.4
2019-03-02T18:22:11.676Z,5.4
2019-03-02T18:27:39.486Z,5.4
2019-03-02T18:33:11.107Z,5.5
2019-03-02T18:38:35.858Z,5.5
2019-03-02T18:44:03.619Z,5.5
2019-03-02T18:49:31.320Z,5.5
2019-03-02T18:54:58.980Z,5.4
2019-03-02T19:00:26.700Z,5.4
2019-03-02T19:05:54.404Z,5.4
2019-03-02T19:11:23.141Z,5.4
2019-03-02T19:16:50.828Z,5.3
2019-03-02T19:22:19.547Z,5.3
2019-03-02T19:27:48.234Z,5.3
2019-03-02T19:33:15.954Z,5.4
2019-03-02T19:38:43.677Z,5.4
2019-03-02T19:44:11.468Z,5.4
2019-03-02T19:49:40.091Z,5.4
2019-03-02T19:55:07.786Z,5.4
2019-03-02T20:00:36.586Z,5.4
2019-03-02T20:06:05.184Z,5.4
2019-03-02T20:11:33.920Z,5.4
2019-03-02T20:17:01.606Z,5.4
2019-03-02T20:22:30.401Z,5.4
2019-03-02T20:27:58.008Z,5.4
2019-03-02T20:33:25.699Z,5.4
2019-03-02T20:38:54.518Z,5.4
2019-03-02T20:44:22.116Z,5.4
2019-03-02T20:49:49.831Z,5.4
2019-03-02T20:55:18.545Z,5.4
2019-03-02T21:00:46.305Z,5.5
2019-03-02T21:06:14.981Z,5.5
2019-03-02T21:11:42.717Z,5.5
2019-03-02T21:17:11.459Z,5.5
2019-03-02T21:22:40.862Z,5.5
2019-03-02T21:28:08.059Z,5.5
2019-03-02T21:33:36.549Z,5.5
2019-03-02T21:39:05.279Z,5.5
2019-03-02T21:44:32.928Z,5.5
2019-03-02T21:50:01.747Z,5.4
2019-03-02T21:55:30.385Z,5.4
2019-03-02T22:00:58.114Z,5.4
2019-03-02T22:06:25.798Z,5.4
2019-03-02T22:11:54.491Z,5.4
2019-03-02T22:17:22.357Z,5.4
2019-03-02T22:22:50.940Z,5.4
2019-03-02T22:28:18.726Z,5.4
2019-03-02T22:33:47.311Z,5.4
2019-03-02T22:39:15.061Z,5.4
2019-03-02T22:44:43.832Z,5.4
2019-03-02T22:50:11.437Z,5.5
2019-03-02T22:55:39.257Z,5.5
2019-03-02T23:01:07.954Z,5.5
2019-03-02T23:06:35.586Z,5.5
2019-03-02T23:12:03.271Z,5.6
2019-03-02T23:17:32.155Z,5.6
2019-03-02T23:23:00.740Z,5.6
2019-03-02T23:28:28.451Z,5.6
2019-03-02T23:33:57.326Z,5.7
2019-03-02T23:39:24.876Z,5.7
2019-03-02T23:44:53.571Z,5.7
2019-03-02T23:50:22.311Z,5.7
2019-03-02T23:55:51.060Z,5.7
